logo
Rechercher aéroport 
image banner adimage banner adimage banner ad
image banner ad

34CN - Bonanza Hills

Situé à Snelling, United States

ICAO - 34CN, IATA -

Données fournies par Airmate  

Information générale

Coordonnées: N37°31'25" W120°23'52"
Élévation : 295 feet MSL.
Variation magnétique : 15° East
Voir autres Aéroports à California

Données opérationnelles

Special qualification required
Heure actuelle UTC:
Heure actuelle locale:
Météo à : KMER - Castle ( 22 km )
METAR: KMER 011753Z 33006KT 10SM CLR 28/09 A2981
TAF: KMER 011720Z 0118/0218 VRB06KT P6SM SKC FM020000 32007G17KT P6SM SKC AMD NOT SKED
Voir NOTAMs / SUP AIP / TFR affectant cet aéroport [VIEW]
Fréquences de communication: [VIEW]

Pistes:

Identifiant RWYQFULongueur (ft)Largeur (ft)SurfaceLDA (ft)
074100100OTHER
254100100OTHER

Coordonnées de l'aéroport

Adresse: Snelling United States

Vue satellite de 34CN